SWR2MK LSZH-GCLP
Flight info
| Callsign | SWR2MK |
|---|---|
| Flight time | 4h 6m |
| Altitude | 33000 |
| Route | VEBIT T50 ROTOS Z669 ULMES DCT VADAR DCT NINTU/N0450F390 DCT MEBAK DCT REPSI DCT LERGA DCT MINSO DCT NARAK DCT AGN DCT MAQAB DCT TIVLI N869 ZAR Z245 CJN N10 HIJ DCT SVL N857 KORNO UN857 TERTO |
| Aircraft | A333/H-SDE3GHIJ2J3J5M1RVWXY/LB2D1 |
Departure
| Time | 2026-04-26 07:05 |
|---|---|
| Airport | Zürich Airport (LSZH) |
Arrival
| Time | 2026-04-26 11:12 |
|---|---|
| Airport | Gran Canaria Airport (GCLP) |
| Time | Latitude | Longitude | Altitude | Speed | Heading |
|---|---|---|---|---|---|
| 2026-04-26 06:27 | 47.46063 | 8.55360 | 1408 ft | 0 kts | 6° |
| 2026-04-26 06:48 | 47.46054 | 8.55358 | 1401 ft | 2 kts | 358° |
| 2026-04-26 06:48 | 47.46038 | 8.55360 | 1408 ft | 2 kts | 349° |
| 2026-04-26 06:48 | 47.46022 | 8.55367 | 1407 ft | 2 kts | 336° |
| 2026-04-26 06:48 | 47.46007 | 8.55378 | 1410 ft | 2 kts | 322° |
| 2026-04-26 06:49 | 47.45995 | 8.55394 | 1407 ft | 2 kts | 310° |
| 2026-04-26 06:49 | 47.45985 | 8.55414 | 1410 ft | 2 kts | 301° |
| 2026-04-26 06:49 | 47.45978 | 8.55435 | 1407 ft | 2 kts | 293° |
| 2026-04-26 06:49 | 47.45972 | 8.55458 | 1409 ft | 2 kts | 287° |
| 2026-04-26 06:50 | 47.45968 | 8.55481 | 1407 ft | 2 kts | 282° |
| 2026-04-26 06:50 | 47.45965 | 8.55504 | 1410 ft | 2 kts | 278° |
| 2026-04-26 06:50 | 47.45964 | 8.55514 | 1410 ft | 1 kts | 277° |
| 2026-04-26 06:50 | 47.45964 | 8.55515 | 1409 ft | 0 kts | 276° |
| 2026-04-26 06:52 | 47.45965 | 8.55502 | 1409 ft | 2 kts | 276° |
| 2026-04-26 06:53 | 47.45967 | 8.55471 | 1399 ft | 4 kts | 276° |
| 2026-04-26 06:53 | 47.45970 | 8.55421 | 1401 ft | 6 kts | 276° |
| 2026-04-26 06:53 | 47.45975 | 8.55353 | 1404 ft | 8 kts | 276° |
| 2026-04-26 06:53 | 47.45982 | 8.55259 | 1401 ft | 10 kts | 276° |
| 2026-04-26 06:54 | 47.45990 | 8.55143 | 1396 ft | 12 kts | 276° |
| 2026-04-26 06:54 | 47.45999 | 8.55021 | 1403 ft | 11 kts | 276° |
| 2026-04-26 06:54 | 47.46035 | 8.54938 | 1409 ft | 9 kts | 322° |
| 2026-04-26 06:54 | 47.46094 | 8.54889 | 1409 ft | 11 kts | 334° |
| 2026-04-26 06:55 | 47.46176 | 8.54832 | 1405 ft | 15 kts | 335° |
| 2026-04-26 06:55 | 47.46271 | 8.54767 | 1408 ft | 15 kts | 335° |
| 2026-04-26 06:55 | 47.46375 | 8.54696 | 1406 ft | 17 kts | 335° |
| 2026-04-26 06:55 | 47.46484 | 8.54620 | 1406 ft | 17 kts | 335° |
| 2026-04-26 06:56 | 47.46597 | 8.54543 | 1403 ft | 19 kts | 335° |
| 2026-04-26 06:56 | 47.46714 | 8.54463 | 1405 ft | 18 kts | 336° |
| 2026-04-26 06:56 | 47.46837 | 8.54391 | 1404 ft | 19 kts | 337° |
| 2026-04-26 06:56 | 47.46950 | 8.54315 | 1410 ft | 16 kts | 334° |
| 2026-04-26 06:57 | 47.47046 | 8.54248 | 1411 ft | 15 kts | 335° |
| 2026-04-26 06:57 | 47.47137 | 8.54186 | 1411 ft | 14 kts | 335° |
| 2026-04-26 06:57 | 47.47224 | 8.54126 | 1409 ft | 14 kts | 334° |
| 2026-04-26 06:57 | 47.47323 | 8.54057 | 1407 ft | 16 kts | 334° |
| 2026-04-26 06:58 | 47.47428 | 8.53984 | 1405 ft | 17 kts | 335° |
| 2026-04-26 06:58 | 47.47541 | 8.53907 | 1409 ft | 14 kts | 335° |
| 2026-04-26 06:58 | 47.47601 | 8.53819 | 1411 ft | 11 kts | 292° |
| 2026-04-26 06:58 | 47.47606 | 8.53792 | 1410 ft | 0 kts | 279° |
| 2026-04-26 07:02 | 47.47606 | 8.53791 | 1402 ft | 1 kts | 278° |
| 2026-04-26 07:02 | 47.47602 | 8.53740 | 1412 ft | 8 kts | 257° |
| 2026-04-26 07:03 | 47.47580 | 8.53660 | 1413 ft | 9 kts | 243° |
| 2026-04-26 07:03 | 47.47532 | 8.53618 | 1408 ft | 9 kts | 167° |
| 2026-04-26 07:03 | 47.47494 | 8.53646 | 1405 ft | 0 kts | 155° |
| 2026-04-26 07:04 | 47.47491 | 8.53648 | 1404 ft | 2 kts | 155° |
| 2026-04-26 07:04 | 47.47357 | 8.53739 | 1406 ft | 51 kts | 155° |
| 2026-04-26 07:04 | 47.46858 | 8.54084 | 1408 ft | 109 kts | 155° |
| 2026-04-26 07:05 | 47.46003 | 8.54674 | 1408 ft | 161 kts | 155° |
| 2026-04-26 07:05 | 47.44923 | 8.55388 | 1957 ft | 169 kts | 157° |
| 2026-04-26 07:05 | 47.43867 | 8.56178 | 2696 ft | 176 kts | 139° |
| 2026-04-26 07:05 | 47.43234 | 8.57753 | 2989 ft | 195 kts | 97° |
| 2026-04-26 07:06 | 47.43558 | 8.59742 | 3475 ft | 211 kts | 53° |
| 2026-04-26 07:06 | 47.44805 | 8.60906 | 4210 ft | 222 kts | 13° |
| 2026-04-26 07:06 | 47.46352 | 8.60578 | 4942 ft | 234 kts | 333° |
| 2026-04-26 07:06 | 47.47458 | 8.58816 | 5753 ft | 240 kts | 292° |
| 2026-04-26 07:07 | 47.47591 | 8.56412 | 6659 ft | 240 kts | 255° |
| 2026-04-26 07:07 | 47.46759 | 8.54292 | 7481 ft | 241 kts | 231° |
| 2026-04-26 07:07 | 47.45880 | 8.52216 | 8216 ft | 246 kts | 252° |
| 2026-04-26 07:07 | 47.45345 | 8.49688 | 8581 ft | 269 kts | 246° |
| 2026-04-26 07:08 | 47.44278 | 8.47303 | 9088 ft | 284 kts | 236° |
| 2026-04-26 07:08 | 47.43182 | 8.44855 | 9848 ft | 289 kts | 238° |
| 2026-04-26 07:08 | 47.42098 | 8.42320 | 10507 ft | 297 kts | 239° |
| 2026-04-26 07:08 | 47.40995 | 8.39639 | 10824 ft | 317 kts | 240° |
| 2026-04-26 07:09 | 47.39838 | 8.36747 | 11136 ft | 336 kts | 241° |
| 2026-04-26 07:09 | 47.38667 | 8.33690 | 11668 ft | 344 kts | 243° |
| 2026-04-26 07:09 | 47.37532 | 8.30552 | 12401 ft | 348 kts | 243° |
| 2026-04-26 07:09 | 47.36398 | 8.27376 | 13195 ft | 350 kts | 243° |
| 2026-04-26 07:10 | 47.32972 | 8.17750 | 15240 ft | 360 kts | 244° |
| 2026-04-26 07:11 | 47.30611 | 8.11117 | 16536 ft | 368 kts | 244° |
| 2026-04-26 07:11 | 47.29427 | 8.07787 | 17102 ft | 373 kts | 244° |
| 2026-04-26 07:11 | 47.28211 | 8.04373 | 17711 ft | 377 kts | 243° |
| 2026-04-26 07:11 | 47.27001 | 8.00911 | 18351 ft | 381 kts | 245° |
| 2026-04-26 07:12 | 47.25889 | 7.97348 | 18927 ft | 383 kts | 248° |
| 2026-04-26 07:12 | 47.24859 | 7.93767 | 19496 ft | 385 kts | 249° |
| 2026-04-26 07:12 | 47.23847 | 7.90105 | 20088 ft | 386 kts | 249° |
| 2026-04-26 07:12 | 47.22837 | 7.86401 | 20660 ft | 388 kts | 249° |
| 2026-04-26 07:13 | 47.21826 | 7.82705 | 21201 ft | 390 kts | 249° |
| 2026-04-26 07:13 | 47.20810 | 7.79026 | 21766 ft | 392 kts | 249° |
| 2026-04-26 07:13 | 47.19750 | 7.75301 | 22277 ft | 395 kts | 246° |
| 2026-04-26 07:13 | 47.18386 | 7.71766 | 22826 ft | 398 kts | 237° |
| 2026-04-26 07:14 | 47.17343 | 7.69535 | 23182 ft | 400 kts | 236° |
| 2026-04-26 07:14 | 47.15120 | 7.65160 | 23860 ft | 403 kts | 233° |
| 2026-04-26 07:14 | 47.13970 | 7.63006 | 24138 ft | 404 kts | 233° |
| 2026-04-26 07:14 | 47.12206 | 7.59772 | 24511 ft | 407 kts | 232° |
| 2026-04-26 07:15 | 47.10416 | 7.56516 | 24899 ft | 410 kts | 232° |
| 2026-04-26 07:15 | 47.08036 | 7.52187 | 25442 ft | 412 kts | 232° |
| 2026-04-26 07:15 | 47.06816 | 7.49959 | 25698 ft | 414 kts | 232° |
| 2026-04-26 07:15 | 47.05031 | 7.46692 | 26095 ft | 416 kts | 232° |
| 2026-04-26 07:16 | 47.03216 | 7.43360 | 26490 ft | 418 kts | 232° |
| 2026-04-26 07:16 | 47.01395 | 7.40022 | 26893 ft | 420 kts | 232° |
| 2026-04-26 07:16 | 46.99563 | 7.36671 | 27328 ft | 420 kts | 232° |
| 2026-04-26 07:16 | 46.97756 | 7.33372 | 27742 ft | 422 kts | 232° |
| 2026-04-26 07:17 | 46.95910 | 7.30009 | 28116 ft | 424 kts | 232° |
| 2026-04-26 07:17 | 46.94060 | 7.26634 | 28485 ft | 426 kts | 232° |
| 2026-04-26 07:17 | 46.92198 | 7.23238 | 28862 ft | 428 kts | 232° |
| 2026-04-26 07:17 | 46.90330 | 7.19834 | 29250 ft | 430 kts | 232° |
| 2026-04-26 07:18 | 46.88447 | 7.16404 | 29622 ft | 432 kts | 232° |
| 2026-04-26 07:18 | 46.86580 | 7.13009 | 30009 ft | 434 kts | 232° |
| 2026-04-26 07:18 | 46.84678 | 7.09554 | 30352 ft | 436 kts | 232° |
| 2026-04-26 07:18 | 46.82763 | 7.06080 | 30678 ft | 438 kts | 232° |
| 2026-04-26 07:19 | 46.80849 | 7.02613 | 30997 ft | 439 kts | 232° |
| 2026-04-26 07:19 | 46.78943 | 6.99165 | 31323 ft | 440 kts | 232° |
| 2026-04-26 07:19 | 46.77003 | 6.95659 | 31644 ft | 442 kts | 232° |
| 2026-04-26 07:19 | 46.75089 | 6.92203 | 31920 ft | 444 kts | 232° |
| 2026-04-26 07:20 | 46.73140 | 6.88693 | 32259 ft | 444 kts | 231° |
| 2026-04-26 07:20 | 46.71189 | 6.85182 | 32727 ft | 442 kts | 231° |
| 2026-04-26 07:20 | 46.69270 | 6.81733 | 33111 ft | 441 kts | 231° |
| 2026-04-26 07:21 | 46.65553 | 6.74716 | 33197 ft | 429 kts | 237° |
| 2026-04-26 07:21 | 46.62382 | 6.67414 | 33190 ft | 427 kts | 239° |
| 2026-04-26 07:22 | 46.59304 | 6.60042 | 33184 ft | 427 kts | 239° |
| 2026-04-26 07:22 | 46.56227 | 6.52638 | 33179 ft | 427 kts | 239° |
| 2026-04-26 07:23 | 46.53139 | 6.45282 | 33185 ft | 427 kts | 238° |
| 2026-04-26 07:23 | 46.49990 | 6.37947 | 33179 ft | 427 kts | 238° |
| 2026-04-26 07:24 | 46.46849 | 6.30680 | 33178 ft | 427 kts | 238° |
| 2026-04-26 07:24 | 46.43705 | 6.23405 | 33175 ft | 427 kts | 238° |
| 2026-04-26 07:25 | 46.40536 | 6.16078 | 33181 ft | 427 kts | 238° |
| 2026-04-26 07:25 | 46.37388 | 6.08814 | 33182 ft | 427 kts | 238° |
| 2026-04-26 07:26 | 46.34228 | 6.01544 | 33186 ft | 428 kts | 238° |
| 2026-04-26 07:26 | 46.31044 | 5.94238 | 33183 ft | 427 kts | 238° |
| 2026-04-26 07:27 | 46.27885 | 5.87007 | 33182 ft | 427 kts | 238° |
| 2026-04-26 07:27 | 46.24706 | 5.79748 | 33179 ft | 427 kts | 238° |
| 2026-04-26 07:28 | 46.21539 | 5.72537 | 33168 ft | 427 kts | 238° |
| 2026-04-26 07:28 | 46.18348 | 5.65290 | 33171 ft | 427 kts | 238° |
| 2026-04-26 07:29 | 46.15164 | 5.58079 | 33163 ft | 427 kts | 238° |
| 2026-04-26 07:29 | 46.11955 | 5.50828 | 33169 ft | 427 kts | 237° |
| 2026-04-26 07:30 | 46.08770 | 5.43648 | 33171 ft | 427 kts | 237° |
| 2026-04-26 07:30 | 46.05584 | 5.36490 | 33173 ft | 417 kts | 237° |
| 2026-04-26 07:30 | 46.04037 | 5.33019 | 33169 ft | 405 kts | 237° |
| 2026-04-26 07:31 | 46.02528 | 5.29639 | 33178 ft | 400 kts | 237° |
| 2026-04-26 07:31 | 45.99504 | 5.22875 | 33176 ft | 401 kts | 237° |
| 2026-04-26 07:32 | 45.96493 | 5.16155 | 33181 ft | 401 kts | 237° |
| 2026-04-26 07:32 | 45.93482 | 5.09453 | 33181 ft | 401 kts | 237° |
| 2026-04-26 07:33 | 45.90444 | 5.02706 | 33178 ft | 401 kts | 237° |
| 2026-04-26 07:33 | 45.87410 | 4.95986 | 33182 ft | 401 kts | 237° |
| 2026-04-26 07:34 | 45.84383 | 4.89296 | 33182 ft | 401 kts | 237° |
| 2026-04-26 07:34 | 45.81328 | 4.82559 | 33183 ft | 401 kts | 237° |
| 2026-04-26 07:35 | 45.78295 | 4.75888 | 33181 ft | 401 kts | 237° |
| 2026-04-26 07:35 | 45.75232 | 4.69168 | 33185 ft | 402 kts | 237° |
| 2026-04-26 07:36 | 45.72179 | 4.62483 | 33176 ft | 402 kts | 237° |
| 2026-04-26 07:36 | 45.69124 | 4.55812 | 33192 ft | 403 kts | 237° |
| 2026-04-26 07:37 | 45.66048 | 4.49109 | 33199 ft | 402 kts | 237° |
| 2026-04-26 07:37 | 45.62965 | 4.42407 | 33204 ft | 402 kts | 237° |
| 2026-04-26 07:38 | 45.59890 | 4.35739 | 33211 ft | 402 kts | 237° |
| 2026-04-26 07:38 | 45.56822 | 4.29101 | 33210 ft | 403 kts | 237° |
| 2026-04-26 07:39 | 45.53707 | 4.22380 | 33213 ft | 405 kts | 237° |
| 2026-04-26 07:39 | 45.50595 | 4.15678 | 33209 ft | 406 kts | 237° |
| 2026-04-26 07:40 | 45.47485 | 4.09000 | 33202 ft | 406 kts | 237° |
| 2026-04-26 07:40 | 45.44351 | 4.02283 | 33214 ft | 406 kts | 237° |
| 2026-04-26 07:41 | 45.41238 | 3.95627 | 33207 ft | 405 kts | 237° |
| 2026-04-26 07:41 | 45.38100 | 3.88933 | 33186 ft | 406 kts | 237° |
| 2026-04-26 07:42 | 45.34968 | 3.82269 | 33194 ft | 407 kts | 237° |
| 2026-04-26 07:42 | 45.31800 | 3.75541 | 33202 ft | 409 kts | 237° |
| 2026-04-26 07:43 | 45.28653 | 3.68875 | 33175 ft | 408 kts | 237° |
| 2026-04-26 07:43 | 45.25480 | 3.62171 | 33193 ft | 408 kts | 237° |
| 2026-04-26 07:44 | 45.22326 | 3.55525 | 33180 ft | 408 kts | 237° |
| 2026-04-26 07:44 | 45.19149 | 3.48842 | 33198 ft | 408 kts | 237° |
| 2026-04-26 07:45 | 45.15988 | 3.42210 | 33183 ft | 408 kts | 237° |
| 2026-04-26 07:45 | 45.12802 | 3.35542 | 33196 ft | 407 kts | 237° |
| 2026-04-26 07:46 | 45.09615 | 3.28886 | 33199 ft | 407 kts | 237° |
| 2026-04-26 07:46 | 45.06447 | 3.22285 | 33197 ft | 407 kts | 237° |
| 2026-04-26 07:47 | 45.03272 | 3.15685 | 33202 ft | 407 kts | 237° |
| 2026-04-26 07:47 | 45.00090 | 3.09084 | 33202 ft | 407 kts | 237° |
| 2026-04-26 07:48 | 44.96893 | 3.02470 | 33202 ft | 408 kts | 237° |
| 2026-04-26 07:48 | 44.93676 | 2.95826 | 33198 ft | 409 kts | 237° |
| 2026-04-26 07:49 | 44.90474 | 2.89233 | 33203 ft | 409 kts | 237° |
| 2026-04-26 07:49 | 44.87263 | 2.82633 | 33197 ft | 409 kts | 237° |
| 2026-04-26 07:50 | 44.82423 | 2.72717 | 33209 ft | 409 kts | 237° |
| 2026-04-26 07:50 | 44.79185 | 2.66099 | 33204 ft | 409 kts | 237° |
| 2026-04-26 07:51 | 44.75952 | 2.59510 | 33210 ft | 413 kts | 237° |
| 2026-04-26 07:51 | 44.72671 | 2.52837 | 33209 ft | 413 kts | 237° |
| 2026-04-26 07:52 | 44.69393 | 2.46186 | 33210 ft | 413 kts | 237° |
| 2026-04-26 07:52 | 44.66126 | 2.39570 | 33206 ft | 413 kts | 237° |
| 2026-04-26 07:53 | 44.62855 | 2.32965 | 33211 ft | 414 kts | 237° |
| 2026-04-26 07:53 | 44.59559 | 2.26324 | 33202 ft | 415 kts | 237° |
| 2026-04-26 07:54 | 44.56259 | 2.19688 | 33208 ft | 416 kts | 237° |
| 2026-04-26 07:54 | 44.52948 | 2.13047 | 33209 ft | 415 kts | 237° |
| 2026-04-26 07:55 | 44.49630 | 2.06408 | 33212 ft | 415 kts | 237° |
| 2026-04-26 07:55 | 44.46306 | 1.99771 | 33209 ft | 415 kts | 237° |
| 2026-04-26 07:56 | 44.42993 | 1.93170 | 33211 ft | 415 kts | 237° |
| 2026-04-26 07:56 | 44.39664 | 1.86553 | 33206 ft | 417 kts | 237° |
| 2026-04-26 07:57 | 44.36333 | 1.79946 | 33211 ft | 417 kts | 237° |
| 2026-04-26 07:57 | 44.32978 | 1.73309 | 33208 ft | 417 kts | 237° |
| 2026-04-26 07:58 | 44.29637 | 1.66713 | 33208 ft | 417 kts | 237° |
| 2026-04-26 07:58 | 44.26297 | 1.60135 | 33210 ft | 417 kts | 237° |
| 2026-04-26 07:59 | 44.22930 | 1.53519 | 33212 ft | 417 kts | 237° |
| 2026-04-26 07:59 | 44.19574 | 1.46938 | 33211 ft | 420 kts | 237° |
| 2026-04-26 08:00 | 44.16169 | 1.40278 | 33212 ft | 420 kts | 237° |
| 2026-04-26 08:00 | 44.12789 | 1.33682 | 33212 ft | 420 kts | 236° |
| 2026-04-26 08:01 | 44.09957 | 1.28166 | 33210 ft | 420 kts | 236° |
| 2026-04-26 08:01 | 44.06552 | 1.21548 | 33212 ft | 420 kts | 236° |
| 2026-04-26 08:02 | 44.03132 | 1.14916 | 33213 ft | 421 kts | 236° |
| 2026-04-26 08:02 | 43.99723 | 1.08319 | 33204 ft | 422 kts | 236° |
| 2026-04-26 08:03 | 43.96280 | 1.01672 | 33203 ft | 422 kts | 236° |
| 2026-04-26 08:03 | 43.92853 | 0.95073 | 33223 ft | 422 kts | 236° |
| 2026-04-26 08:04 | 43.89367 | 0.88526 | 33224 ft | 423 kts | 231° |
| 2026-04-26 08:04 | 43.85194 | 0.82775 | 33205 ft | 425 kts | 224° |
| 2026-04-26 08:05 | 43.80788 | 0.77280 | 33204 ft | 424 kts | 223° |
| 2026-04-26 08:05 | 43.76375 | 0.71888 | 33214 ft | 425 kts | 223° |
| 2026-04-26 08:06 | 43.71925 | 0.66442 | 33216 ft | 427 kts | 223° |
| 2026-04-26 08:06 | 43.67475 | 0.60982 | 33219 ft | 427 kts | 223° |
| 2026-04-26 08:07 | 43.63048 | 0.55552 | 33219 ft | 427 kts | 223° |
| 2026-04-26 08:07 | 43.58607 | 0.50116 | 33219 ft | 425 kts | 223° |
| 2026-04-26 08:08 | 43.54208 | 0.44742 | 33219 ft | 424 kts | 223° |
| 2026-04-26 08:08 | 43.49777 | 0.39341 | 33219 ft | 424 kts | 223° |
| 2026-04-26 08:09 | 43.45358 | 0.33964 | 33217 ft | 426 kts | 223° |
| 2026-04-26 08:09 | 43.40907 | 0.28562 | 33214 ft | 427 kts | 223° |
| 2026-04-26 08:10 | 43.36448 | 0.23164 | 33213 ft | 425 kts | 223° |
| 2026-04-26 08:10 | 43.32015 | 0.17807 | 33213 ft | 425 kts | 223° |
| 2026-04-26 08:11 | 43.27562 | 0.12437 | 33220 ft | 425 kts | 223° |
| 2026-04-26 08:11 | 43.23129 | 0.07102 | 33213 ft | 425 kts | 223° |
| 2026-04-26 08:12 | 43.18673 | 0.01750 | 33209 ft | 423 kts | 223° |
| 2026-04-26 08:12 | 43.14267 | -0.03531 | 33210 ft | 424 kts | 223° |
| 2026-04-26 08:13 | 43.09806 | -0.08869 | 33211 ft | 426 kts | 223° |
| 2026-04-26 08:13 | 43.05355 | -0.14181 | 33211 ft | 426 kts | 222° |
| 2026-04-26 08:14 | 43.00882 | -0.19511 | 33198 ft | 425 kts | 222° |
| 2026-04-26 08:14 | 42.96426 | -0.24808 | 33202 ft | 421 kts | 222° |
| 2026-04-26 08:15 | 42.92024 | -0.30033 | 33202 ft | 421 kts | 222° |
| 2026-04-26 08:15 | 42.87611 | -0.35261 | 33196 ft | 421 kts | 222° |
| 2026-04-26 08:16 | 42.83196 | -0.40477 | 33189 ft | 421 kts | 221° |
| 2026-04-26 08:16 | 42.78234 | -0.44744 | 33192 ft | 423 kts | 206° |
| 2026-04-26 08:17 | 42.72807 | -0.47841 | 33180 ft | 424 kts | 202° |
| 2026-04-26 08:17 | 42.67307 | -0.50695 | 33176 ft | 424 kts | 202° |
| 2026-04-26 08:18 | 42.61758 | -0.53551 | 33176 ft | 424 kts | 202° |
| 2026-04-26 08:18 | 42.56271 | -0.56405 | 33171 ft | 421 kts | 202° |
| 2026-04-26 08:19 | 42.50833 | -0.59249 | 33167 ft | 420 kts | 202° |
| 2026-04-26 08:19 | 42.45352 | -0.62116 | 33160 ft | 420 kts | 202° |
| 2026-04-26 08:20 | 42.39909 | -0.64955 | 33158 ft | 420 kts | 202° |
| 2026-04-26 08:20 | 42.34466 | -0.67788 | 33164 ft | 420 kts | 202° |
| 2026-04-26 08:21 | 42.28997 | -0.70629 | 33165 ft | 420 kts | 202° |
| 2026-04-26 08:21 | 42.23557 | -0.73449 | 33164 ft | 420 kts | 202° |
| 2026-04-26 08:22 | 42.18106 | -0.76271 | 33157 ft | 420 kts | 202° |
| 2026-04-26 08:22 | 42.12632 | -0.79099 | 33160 ft | 421 kts | 202° |
| 2026-04-26 08:23 | 42.07193 | -0.81903 | 33160 ft | 421 kts | 202° |
| 2026-04-26 08:23 | 42.01725 | -0.84717 | 33159 ft | 421 kts | 202° |
| 2026-04-26 08:24 | 41.96265 | -0.87522 | 33161 ft | 421 kts | 202° |
| 2026-04-26 08:24 | 41.90779 | -0.90335 | 33159 ft | 421 kts | 202° |
| 2026-04-26 08:25 | 41.85320 | -0.93128 | 33161 ft | 421 kts | 202° |
| 2026-04-26 08:25 | 41.79841 | -0.95927 | 33179 ft | 421 kts | 202° |
| 2026-04-26 08:26 | 41.74371 | -0.98717 | 33186 ft | 422 kts | 202° |
| 2026-04-26 08:26 | 41.68859 | -1.01540 | 33183 ft | 423 kts | 204° |
| 2026-04-26 08:27 | 41.63868 | -1.05542 | 33187 ft | 420 kts | 220° |
| 2026-04-26 08:27 | 41.59446 | -1.10598 | 33183 ft | 419 kts | 223° |
| 2026-04-26 08:28 | 41.55121 | -1.15870 | 33173 ft | 420 kts | 223° |
| 2026-04-26 08:28 | 41.50817 | -1.21127 | 33174 ft | 422 kts | 223° |
| 2026-04-26 08:29 | 41.46440 | -1.26414 | 33165 ft | 423 kts | 223° |
| 2026-04-26 08:29 | 41.42082 | -1.31643 | 33164 ft | 423 kts | 223° |
| 2026-04-26 08:30 | 41.37704 | -1.36880 | 33167 ft | 423 kts | 223° |
| 2026-04-26 08:30 | 41.33316 | -1.42122 | 33168 ft | 423 kts | 222° |
| 2026-04-26 08:31 | 41.28941 | -1.47340 | 33167 ft | 425 kts | 222° |
| 2026-04-26 08:31 | 41.24538 | -1.52582 | 33167 ft | 425 kts | 223° |
| 2026-04-26 08:32 | 41.20141 | -1.57808 | 33167 ft | 425 kts | 222° |
| 2026-04-26 08:32 | 41.15713 | -1.63058 | 33167 ft | 425 kts | 222° |
| 2026-04-26 08:33 | 41.11318 | -1.68261 | 33168 ft | 425 kts | 222° |
| 2026-04-26 08:33 | 41.06899 | -1.73483 | 33172 ft | 427 kts | 222° |
| 2026-04-26 08:34 | 41.02474 | -1.78702 | 33170 ft | 427 kts | 222° |
| 2026-04-26 08:34 | 40.98017 | -1.83946 | 33165 ft | 427 kts | 222° |
| 2026-04-26 08:35 | 40.93587 | -1.89148 | 33164 ft | 427 kts | 222° |
| 2026-04-26 08:35 | 40.89161 | -1.94337 | 33165 ft | 427 kts | 221° |
| 2026-04-26 08:36 | 40.84695 | -1.99562 | 33166 ft | 428 kts | 221° |
| 2026-04-26 08:36 | 40.80254 | -2.04748 | 33166 ft | 428 kts | 221° |
| 2026-04-26 08:37 | 40.75775 | -2.09970 | 33162 ft | 428 kts | 221° |
| 2026-04-26 08:37 | 40.71316 | -2.15157 | 33157 ft | 428 kts | 221° |
| 2026-04-26 08:38 | 40.66827 | -2.20360 | 33157 ft | 428 kts | 221° |
| 2026-04-26 08:38 | 40.62360 | -2.25525 | 33157 ft | 428 kts | 221° |
| 2026-04-26 08:39 | 40.57871 | -2.30709 | 33147 ft | 428 kts | 220° |
| 2026-04-26 08:39 | 40.53412 | -2.35847 | 33148 ft | 428 kts | 221° |
| 2026-04-26 08:40 | 40.48920 | -2.41014 | 33148 ft | 427 kts | 220° |
| 2026-04-26 08:40 | 40.44452 | -2.46145 | 33150 ft | 428 kts | 220° |
| 2026-04-26 08:41 | 40.39987 | -2.51262 | 33151 ft | 428 kts | 220° |
| 2026-04-26 08:41 | 40.35784 | -2.56756 | 33151 ft | 428 kts | 228° |
| 2026-04-26 08:42 | 40.31905 | -2.62715 | 33151 ft | 428 kts | 230° |
| 2026-04-26 08:42 | 40.28101 | -2.68727 | 33152 ft | 428 kts | 230° |
| 2026-04-26 08:43 | 40.24314 | -2.74710 | 33151 ft | 429 kts | 230° |
| 2026-04-26 08:43 | 40.20482 | -2.80729 | 33152 ft | 430 kts | 230° |
| 2026-04-26 08:44 | 40.16658 | -2.86709 | 33151 ft | 430 kts | 230° |
| 2026-04-26 08:44 | 40.12823 | -2.92691 | 33150 ft | 430 kts | 230° |
| 2026-04-26 08:45 | 40.08965 | -2.98700 | 33151 ft | 430 kts | 229° |
| 2026-04-26 08:45 | 40.05120 | -3.04676 | 33154 ft | 430 kts | 229° |
| 2026-04-26 08:46 | 40.01281 | -3.10632 | 33151 ft | 429 kts | 230° |
| 2026-04-26 08:46 | 39.97447 | -3.16570 | 33152 ft | 429 kts | 229° |
| 2026-04-26 08:47 | 39.93591 | -3.22531 | 33151 ft | 430 kts | 229° |
| 2026-04-26 08:47 | 39.90372 | -3.27496 | 33151 ft | 430 kts | 229° |
| 2026-04-26 08:48 | 39.85880 | -3.34414 | 33151 ft | 430 kts | 229° |
| 2026-04-26 08:48 | 39.82644 | -3.39389 | 33152 ft | 430 kts | 229° |
| 2026-04-26 08:49 | 39.78792 | -3.45298 | 33153 ft | 430 kts | 229° |
| 2026-04-26 08:49 | 39.74718 | -3.51019 | 33148 ft | 429 kts | 225° |
| 2026-04-26 08:50 | 39.70502 | -3.56501 | 33148 ft | 431 kts | 224° |
| 2026-04-26 08:50 | 39.66246 | -3.62004 | 33149 ft | 431 kts | 225° |
| 2026-04-26 08:51 | 39.59919 | -3.70267 | 33145 ft | 431 kts | 225° |
| 2026-04-26 08:52 | 39.55716 | -3.75772 | 33146 ft | 431 kts | 225° |
| 2026-04-26 08:52 | 39.51480 | -3.81311 | 33149 ft | 431 kts | 225° |
| 2026-04-26 08:53 | 39.47264 | -3.86812 | 33141 ft | 432 kts | 225° |
| 2026-04-26 08:53 | 39.43022 | -3.92338 | 33137 ft | 432 kts | 225° |
| 2026-04-26 08:54 | 39.38805 | -3.97820 | 33133 ft | 432 kts | 225° |
| 2026-04-26 08:54 | 39.34548 | -4.03343 | 33135 ft | 432 kts | 225° |
| 2026-04-26 08:55 | 39.30313 | -4.08828 | 33138 ft | 432 kts | 225° |
| 2026-04-26 08:55 | 39.26068 | -4.14316 | 33135 ft | 432 kts | 225° |
| 2026-04-26 08:56 | 39.21834 | -4.19780 | 33131 ft | 431 kts | 225° |
| 2026-04-26 08:56 | 39.17569 | -4.25275 | 33133 ft | 432 kts | 225° |
| 2026-04-26 08:57 | 39.13341 | -4.30712 | 33130 ft | 432 kts | 225° |
| 2026-04-26 08:57 | 39.09069 | -4.36194 | 33129 ft | 431 kts | 225° |
| 2026-04-26 08:58 | 39.04826 | -4.41630 | 33127 ft | 431 kts | 225° |
| 2026-04-26 08:58 | 39.00575 | -4.47066 | 33125 ft | 433 kts | 225° |
| 2026-04-26 08:59 | 38.96312 | -4.52510 | 33124 ft | 433 kts | 225° |
| 2026-04-26 08:59 | 38.92020 | -4.57979 | 33112 ft | 433 kts | 225° |
| 2026-04-26 09:00 | 38.87740 | -4.63419 | 33119 ft | 433 kts | 225° |
| 2026-04-26 09:00 | 38.83156 | -4.68392 | 33122 ft | 433 kts | 217° |
| 2026-04-26 09:01 | 38.78271 | -4.72968 | 33113 ft | 433 kts | 216° |
| 2026-04-26 09:01 | 38.73365 | -4.77424 | 33110 ft | 432 kts | 216° |
| 2026-04-26 09:02 | 38.68450 | -4.81871 | 33111 ft | 432 kts | 216° |
| 2026-04-26 09:02 | 38.63570 | -4.86298 | 33107 ft | 432 kts | 216° |
| 2026-04-26 09:03 | 38.58661 | -4.90752 | 33104 ft | 432 kts | 216° |
| 2026-04-26 09:03 | 38.53766 | -4.95188 | 33103 ft | 432 kts | 216° |
| 2026-04-26 09:04 | 38.48984 | -4.99777 | 33106 ft | 433 kts | 219° |
| 2026-04-26 09:04 | 38.44278 | -5.04587 | 33103 ft | 434 kts | 220° |
| 2026-04-26 09:05 | 38.39569 | -5.09453 | 33100 ft | 433 kts | 220° |
| 2026-04-26 09:05 | 38.34894 | -5.14262 | 33101 ft | 433 kts | 220° |
| 2026-04-26 09:06 | 38.30198 | -5.19067 | 33101 ft | 433 kts | 219° |
| 2026-04-26 09:06 | 38.25484 | -5.23877 | 33099 ft | 433 kts | 219° |
| 2026-04-26 09:07 | 38.20786 | -5.28660 | 33100 ft | 434 kts | 219° |
| 2026-04-26 09:07 | 38.16091 | -5.33434 | 33088 ft | 434 kts | 220° |
| 2026-04-26 09:08 | 38.11364 | -5.38232 | 33100 ft | 434 kts | 220° |
| 2026-04-26 09:08 | 38.06634 | -5.43027 | 33102 ft | 434 kts | 220° |
| 2026-04-26 09:09 | 38.01932 | -5.47783 | 33096 ft | 434 kts | 220° |
| 2026-04-26 09:09 | 37.97196 | -5.52566 | 33092 ft | 434 kts | 220° |
| 2026-04-26 09:10 | 37.92459 | -5.57342 | 33093 ft | 434 kts | 220° |
| 2026-04-26 09:10 | 37.87750 | -5.62082 | 33095 ft | 434 kts | 220° |
| 2026-04-26 09:11 | 37.83019 | -5.66836 | 33090 ft | 434 kts | 220° |
| 2026-04-26 09:11 | 37.78283 | -5.71586 | 33085 ft | 434 kts | 220° |
| 2026-04-26 09:12 | 37.73553 | -5.76323 | 33087 ft | 436 kts | 220° |
| 2026-04-26 09:12 | 37.68800 | -5.81077 | 33083 ft | 437 kts | 220° |
| 2026-04-26 09:13 | 37.64015 | -5.85854 | 33079 ft | 437 kts | 220° |
| 2026-04-26 09:13 | 37.59268 | -5.90584 | 33078 ft | 437 kts | 220° |
| 2026-04-26 09:14 | 37.54503 | -5.95323 | 33075 ft | 437 kts | 220° |
| 2026-04-26 09:14 | 37.49718 | -6.00075 | 33075 ft | 437 kts | 220° |
| 2026-04-26 09:15 | 37.44949 | -6.04804 | 33074 ft | 437 kts | 220° |
| 2026-04-26 09:15 | 37.40192 | -6.09512 | 33068 ft | 436 kts | 220° |
| 2026-04-26 09:16 | 37.35417 | -6.14229 | 33075 ft | 436 kts | 220° |
| 2026-04-26 09:16 | 37.30665 | -6.18916 | 33070 ft | 436 kts | 220° |
| 2026-04-26 09:17 | 37.25872 | -6.23637 | 33079 ft | 436 kts | 220° |
| 2026-04-26 09:17 | 37.21106 | -6.28323 | 33080 ft | 436 kts | 220° |
| 2026-04-26 09:18 | 37.16352 | -6.32990 | 33078 ft | 436 kts | 220° |
| 2026-04-26 09:18 | 37.11585 | -6.37661 | 33078 ft | 436 kts | 220° |
| 2026-04-26 09:19 | 37.06792 | -6.42351 | 33078 ft | 436 kts | 220° |
| 2026-04-26 09:19 | 37.02033 | -6.46998 | 33074 ft | 435 kts | 220° |
| 2026-04-26 09:20 | 36.97260 | -6.51653 | 33075 ft | 434 kts | 220° |
| 2026-04-26 09:20 | 36.92501 | -6.56286 | 33080 ft | 434 kts | 220° |
| 2026-04-26 09:21 | 36.87725 | -6.60929 | 33081 ft | 434 kts | 220° |
| 2026-04-26 09:21 | 36.82949 | -6.65564 | 33077 ft | 434 kts | 220° |
| 2026-04-26 09:22 | 36.78198 | -6.70167 | 33076 ft | 434 kts | 220° |
| 2026-04-26 09:22 | 36.73427 | -6.74782 | 33088 ft | 433 kts | 220° |
| 2026-04-26 09:23 | 36.68664 | -6.79382 | 33072 ft | 433 kts | 220° |
| 2026-04-26 09:23 | 36.63912 | -6.83963 | 33072 ft | 433 kts | 220° |
| 2026-04-26 09:24 | 36.59142 | -6.88555 | 33067 ft | 432 kts | 220° |
| 2026-04-26 09:24 | 36.54412 | -6.93101 | 33059 ft | 432 kts | 220° |
| 2026-04-26 09:25 | 36.49640 | -6.97680 | 33080 ft | 432 kts | 220° |
| 2026-04-26 09:25 | 36.44891 | -7.02230 | 33084 ft | 432 kts | 220° |
| 2026-04-26 09:26 | 36.40149 | -7.06766 | 33075 ft | 432 kts | 220° |
| 2026-04-26 09:26 | 36.35382 | -7.11318 | 33077 ft | 432 kts | 220° |
| 2026-04-26 09:27 | 36.30619 | -7.15859 | 33055 ft | 432 kts | 219° |
| 2026-04-26 09:27 | 36.25874 | -7.20376 | 33068 ft | 431 kts | 220° |
| 2026-04-26 09:28 | 36.21112 | -7.24900 | 33061 ft | 429 kts | 219° |
| 2026-04-26 09:28 | 36.16406 | -7.29367 | 33061 ft | 428 kts | 219° |
| 2026-04-26 09:29 | 36.11652 | -7.33871 | 33054 ft | 428 kts | 220° |
| 2026-04-26 09:29 | 36.06948 | -7.38323 | 33058 ft | 428 kts | 220° |
| 2026-04-26 09:30 | 36.02205 | -7.42803 | 33053 ft | 428 kts | 221° |
| 2026-04-26 09:30 | 35.97480 | -7.47260 | 33048 ft | 427 kts | 220° |
| 2026-04-26 09:31 | 35.92773 | -7.51693 | 33053 ft | 426 kts | 219° |
| 2026-04-26 09:31 | 35.88075 | -7.56109 | 33052 ft | 426 kts | 219° |
| 2026-04-26 09:32 | 35.83354 | -7.60542 | 33053 ft | 426 kts | 218° |
| 2026-04-26 09:32 | 35.78622 | -7.64977 | 33047 ft | 425 kts | 219° |
| 2026-04-26 09:33 | 35.73930 | -7.69368 | 33048 ft | 425 kts | 219° |
| 2026-04-26 09:33 | 35.69215 | -7.73774 | 33042 ft | 425 kts | 219° |
| 2026-04-26 09:34 | 35.64525 | -7.78150 | 33046 ft | 425 kts | 219° |
| 2026-04-26 09:34 | 35.59817 | -7.82535 | 33033 ft | 425 kts | 219° |
| 2026-04-26 09:35 | 35.55899 | -7.86180 | 33038 ft | 425 kts | 219° |
| 2026-04-26 09:35 | 35.51180 | -7.90564 | 33036 ft | 424 kts | 218° |
| 2026-04-26 09:36 | 35.46470 | -7.94933 | 33032 ft | 425 kts | 219° |
| 2026-04-26 09:36 | 35.41739 | -7.99317 | 33033 ft | 425 kts | 218° |
| 2026-04-26 09:37 | 35.37044 | -8.03659 | 33025 ft | 425 kts | 218° |
| 2026-04-26 09:37 | 35.32299 | -8.08042 | 33025 ft | 425 kts | 218° |
| 2026-04-26 09:38 | 35.27592 | -8.12383 | 33027 ft | 425 kts | 219° |
| 2026-04-26 09:38 | 35.22878 | -8.16723 | 33023 ft | 425 kts | 218° |
| 2026-04-26 09:39 | 35.18139 | -8.21079 | 33017 ft | 425 kts | 218° |
| 2026-04-26 09:39 | 35.13427 | -8.25404 | 33018 ft | 425 kts | 218° |
| 2026-04-26 09:40 | 35.08688 | -8.29748 | 33014 ft | 425 kts | 218° |
| 2026-04-26 09:40 | 35.03980 | -8.34057 | 33012 ft | 425 kts | 218° |
| 2026-04-26 09:41 | 34.99246 | -8.38384 | 33014 ft | 424 kts | 217° |
| 2026-04-26 09:41 | 34.94539 | -8.42680 | 33010 ft | 424 kts | 217° |
| 2026-04-26 09:42 | 34.89811 | -8.46988 | 33002 ft | 424 kts | 217° |
| 2026-04-26 09:42 | 34.85094 | -8.51279 | 33015 ft | 424 kts | 217° |
| 2026-04-26 09:43 | 34.80336 | -8.55602 | 33008 ft | 424 kts | 217° |
| 2026-04-26 09:43 | 34.75609 | -8.59890 | 33004 ft | 424 kts | 217° |
| 2026-04-26 09:44 | 34.70904 | -8.64153 | 33004 ft | 424 kts | 217° |
| 2026-04-26 09:44 | 34.66150 | -8.68453 | 33005 ft | 424 kts | 217° |
| 2026-04-26 09:45 | 34.61425 | -8.72721 | 33005 ft | 424 kts | 216° |
| 2026-04-26 09:45 | 34.56724 | -8.76962 | 33003 ft | 422 kts | 216° |
| 2026-04-26 09:46 | 34.52013 | -8.81204 | 33004 ft | 421 kts | 216° |
| 2026-04-26 09:46 | 34.47284 | -8.85457 | 33002 ft | 422 kts | 216° |
| 2026-04-26 09:47 | 34.42588 | -8.89673 | 33002 ft | 422 kts | 216° |
| 2026-04-26 09:47 | 34.37859 | -8.93914 | 32995 ft | 421 kts | 216° |
| 2026-04-26 09:48 | 34.33169 | -8.98114 | 33001 ft | 421 kts | 216° |
| 2026-04-26 09:48 | 34.28449 | -9.02334 | 32995 ft | 422 kts | 215° |
| 2026-04-26 09:49 | 34.23752 | -9.06528 | 32995 ft | 421 kts | 216° |
| 2026-04-26 09:49 | 34.19024 | -9.10745 | 32999 ft | 421 kts | 215° |
| 2026-04-26 09:50 | 34.14321 | -9.14932 | 33000 ft | 421 kts | 215° |
| 2026-04-26 09:50 | 34.09587 | -9.19140 | 33000 ft | 422 kts | 215° |
| 2026-04-26 09:51 | 34.04883 | -9.23317 | 32993 ft | 422 kts | 215° |
| 2026-04-26 09:51 | 34.00127 | -9.27534 | 33002 ft | 422 kts | 215° |
| 2026-04-26 09:52 | 33.95408 | -9.31711 | 32995 ft | 422 kts | 216° |
| 2026-04-26 09:52 | 33.88319 | -9.37977 | 32999 ft | 422 kts | 215° |
| 2026-04-26 09:53 | 33.83564 | -9.42171 | 33002 ft | 422 kts | 214° |
| 2026-04-26 09:53 | 33.78822 | -9.46349 | 33007 ft | 423 kts | 214° |
| 2026-04-26 09:54 | 33.74081 | -9.50520 | 33002 ft | 423 kts | 214° |
| 2026-04-26 09:54 | 33.69337 | -9.54688 | 33006 ft | 423 kts | 215° |
| 2026-04-26 09:55 | 33.64603 | -9.58841 | 33006 ft | 422 kts | 216° |
| 2026-04-26 09:55 | 33.59848 | -9.63007 | 32998 ft | 422 kts | 214° |
| 2026-04-26 09:56 | 33.55126 | -9.67137 | 32998 ft | 422 kts | 214° |
| 2026-04-26 09:56 | 33.50359 | -9.71302 | 33000 ft | 422 kts | 215° |
| 2026-04-26 09:57 | 33.45628 | -9.75430 | 33001 ft | 422 kts | 214° |
| 2026-04-26 09:57 | 33.40863 | -9.79582 | 33004 ft | 422 kts | 214° |
| 2026-04-26 09:58 | 33.36120 | -9.83707 | 33012 ft | 423 kts | 215° |
| 2026-04-26 09:58 | 33.31383 | -9.87824 | 33004 ft | 421 kts | 215° |
| 2026-04-26 09:59 | 33.26617 | -9.91959 | 33004 ft | 422 kts | 214° |
| 2026-04-26 09:59 | 33.21881 | -9.96061 | 33002 ft | 422 kts | 214° |
| 2026-04-26 10:00 | 33.17127 | -10.00174 | 33004 ft | 422 kts | 214° |
| 2026-04-26 10:00 | 33.12362 | -10.04292 | 33006 ft | 422 kts | 214° |
| 2026-04-26 10:01 | 33.07621 | -10.08383 | 33009 ft | 422 kts | 213° |
| 2026-04-26 10:01 | 33.02850 | -10.12495 | 33004 ft | 422 kts | 214° |
| 2026-04-26 10:02 | 32.98150 | -10.16678 | 33007 ft | 422 kts | 216° |
| 2026-04-26 10:02 | 32.93517 | -10.20958 | 33009 ft | 423 kts | 216° |
| 2026-04-26 10:03 | 32.88869 | -10.25260 | 33009 ft | 422 kts | 216° |
| 2026-04-26 10:03 | 32.84222 | -10.29535 | 33008 ft | 421 kts | 215° |
| 2026-04-26 10:04 | 32.79586 | -10.33783 | 33008 ft | 421 kts | 216° |
| 2026-04-26 10:04 | 32.74943 | -10.38028 | 33007 ft | 421 kts | 215° |
| 2026-04-26 10:05 | 32.70320 | -10.42251 | 33006 ft | 422 kts | 216° |
| 2026-04-26 10:05 | 32.65656 | -10.46506 | 33009 ft | 422 kts | 216° |
| 2026-04-26 10:06 | 32.61018 | -10.50731 | 33003 ft | 422 kts | 215° |
| 2026-04-26 10:06 | 32.56332 | -10.54994 | 33000 ft | 422 kts | 215° |
| 2026-04-26 10:07 | 32.51685 | -10.59216 | 33009 ft | 421 kts | 216° |
| 2026-04-26 10:07 | 32.47055 | -10.63417 | 33004 ft | 420 kts | 216° |
| 2026-04-26 10:08 | 32.42392 | -10.67642 | 33006 ft | 420 kts | 217° |
| 2026-04-26 10:08 | 32.37774 | -10.71822 | 33005 ft | 418 kts | 217° |
| 2026-04-26 10:09 | 32.33158 | -10.75994 | 33003 ft | 418 kts | 216° |
| 2026-04-26 10:09 | 32.28518 | -10.80181 | 33002 ft | 418 kts | 216° |
| 2026-04-26 10:10 | 32.23915 | -10.84331 | 33002 ft | 419 kts | 216° |
| 2026-04-26 10:10 | 32.19281 | -10.88501 | 33003 ft | 418 kts | 217° |
| 2026-04-26 10:11 | 32.14664 | -10.92653 | 33004 ft | 418 kts | 216° |
| 2026-04-26 10:11 | 32.10044 | -10.96800 | 33001 ft | 416 kts | 216° |
| 2026-04-26 10:12 | 32.05450 | -11.00921 | 32996 ft | 413 kts | 217° |
| 2026-04-26 10:12 | 32.00860 | -11.05031 | 32990 ft | 412 kts | 216° |
| 2026-04-26 10:13 | 31.96314 | -11.09096 | 32995 ft | 413 kts | 216° |
| 2026-04-26 10:13 | 31.91723 | -11.13196 | 32996 ft | 413 kts | 216° |
| 2026-04-26 10:14 | 31.87156 | -11.17271 | 32998 ft | 413 kts | 216° |
| 2026-04-26 10:14 | 31.82588 | -11.21341 | 32998 ft | 412 kts | 217° |
| 2026-04-26 10:15 | 31.78039 | -11.25389 | 32994 ft | 410 kts | 217° |
| 2026-04-26 10:15 | 31.73483 | -11.29444 | 32993 ft | 409 kts | 217° |
| 2026-04-26 10:16 | 31.68928 | -11.33506 | 32991 ft | 410 kts | 217° |
| 2026-04-26 10:16 | 31.64417 | -11.37526 | 32991 ft | 410 kts | 217° |
| 2026-04-26 10:17 | 31.59880 | -11.41566 | 32988 ft | 408 kts | 217° |
| 2026-04-26 10:17 | 31.55362 | -11.45581 | 32978 ft | 408 kts | 217° |
| 2026-04-26 10:18 | 31.50823 | -11.49608 | 32993 ft | 409 kts | 218° |
| 2026-04-26 10:18 | 31.46313 | -11.53606 | 32994 ft | 408 kts | 218° |
| 2026-04-26 10:19 | 31.41768 | -11.57631 | 32988 ft | 407 kts | 217° |
| 2026-04-26 10:19 | 31.37243 | -11.61633 | 32993 ft | 408 kts | 218° |
| 2026-04-26 10:20 | 31.33474 | -11.64962 | 32990 ft | 407 kts | 218° |
| 2026-04-26 10:20 | 31.28187 | -11.69627 | 32986 ft | 408 kts | 218° |
| 2026-04-26 10:21 | 31.23669 | -11.73605 | 32983 ft | 408 kts | 218° |
| 2026-04-26 10:21 | 31.19899 | -11.76922 | 32990 ft | 407 kts | 218° |
| 2026-04-26 10:22 | 31.15362 | -11.80911 | 32979 ft | 406 kts | 218° |
| 2026-04-26 10:22 | 31.10848 | -11.84875 | 32989 ft | 407 kts | 219° |
| 2026-04-26 10:23 | 31.06311 | -11.88853 | 32990 ft | 407 kts | 218° |
| 2026-04-26 10:23 | 31.01801 | -11.92802 | 32992 ft | 407 kts | 218° |
| 2026-04-26 10:24 | 30.97265 | -11.96771 | 32985 ft | 407 kts | 218° |
| 2026-04-26 10:24 | 30.92744 | -12.00720 | 32988 ft | 407 kts | 218° |
| 2026-04-26 10:25 | 30.88221 | -12.04663 | 33001 ft | 407 kts | 218° |
| 2026-04-26 10:25 | 30.83669 | -12.08620 | 32991 ft | 407 kts | 218° |
| 2026-04-26 10:26 | 30.79168 | -12.12530 | 32992 ft | 407 kts | 218° |
| 2026-04-26 10:26 | 30.74634 | -12.16466 | 32993 ft | 406 kts | 218° |
| 2026-04-26 10:27 | 30.70104 | -12.20394 | 32994 ft | 407 kts | 218° |
| 2026-04-26 10:27 | 30.65547 | -12.24341 | 32987 ft | 407 kts | 218° |
| 2026-04-26 10:28 | 30.61030 | -12.28248 | 32994 ft | 406 kts | 218° |
| 2026-04-26 10:28 | 30.56476 | -12.32183 | 32989 ft | 406 kts | 218° |
| 2026-04-26 10:29 | 30.51938 | -12.36098 | 33002 ft | 406 kts | 218° |
| 2026-04-26 10:29 | 30.47415 | -12.39997 | 32998 ft | 406 kts | 218° |
| 2026-04-26 10:30 | 30.42887 | -12.43895 | 33000 ft | 406 kts | 218° |
| 2026-04-26 10:30 | 30.38365 | -12.47784 | 32996 ft | 406 kts | 218° |
| 2026-04-26 10:31 | 30.33821 | -12.51686 | 32999 ft | 406 kts | 219° |
| 2026-04-26 10:31 | 30.29280 | -12.55582 | 33005 ft | 405 kts | 219° |
| 2026-04-26 10:32 | 30.24765 | -12.59450 | 33003 ft | 405 kts | 219° |
| 2026-04-26 10:32 | 30.20219 | -12.63341 | 33006 ft | 405 kts | 218° |
| 2026-04-26 10:33 | 30.15716 | -12.67190 | 33007 ft | 405 kts | 218° |
| 2026-04-26 10:33 | 30.11185 | -12.71060 | 33001 ft | 405 kts | 218° |
| 2026-04-26 10:34 | 30.06659 | -12.74929 | 33003 ft | 405 kts | 218° |
| 2026-04-26 10:34 | 30.02182 | -12.78903 | 33016 ft | 404 kts | 221° |
| 2026-04-26 10:35 | 29.97832 | -12.83014 | 33007 ft | 404 kts | 221° |
| 2026-04-26 10:35 | 29.93503 | -12.87103 | 33006 ft | 404 kts | 221° |
| 2026-04-26 10:36 | 29.89141 | -12.91210 | 33010 ft | 404 kts | 221° |
| 2026-04-26 10:36 | 29.84800 | -12.95292 | 33015 ft | 404 kts | 221° |
| 2026-04-26 10:37 | 29.80463 | -12.99363 | 33013 ft | 404 kts | 221° |
| 2026-04-26 10:37 | 29.76098 | -13.03456 | 33015 ft | 404 kts | 221° |
| 2026-04-26 10:38 | 29.71761 | -13.07519 | 33016 ft | 403 kts | 221° |
| 2026-04-26 10:38 | 29.67483 | -13.11689 | 33018 ft | 402 kts | 222° |
| 2026-04-26 10:39 | 29.63238 | -13.15863 | 33019 ft | 402 kts | 222° |
| 2026-04-26 10:39 | 29.58990 | -13.20024 | 33018 ft | 402 kts | 222° |
| 2026-04-26 10:40 | 29.54744 | -13.24173 | 33024 ft | 402 kts | 222° |
| 2026-04-26 10:40 | 29.50472 | -13.28340 | 33023 ft | 402 kts | 222° |
| 2026-04-26 10:41 | 29.46198 | -13.32505 | 33024 ft | 402 kts | 222° |
| 2026-04-26 10:41 | 29.41950 | -13.36640 | 33021 ft | 402 kts | 222° |
| 2026-04-26 10:42 | 29.37680 | -13.40790 | 33026 ft | 401 kts | 222° |
| 2026-04-26 10:42 | 29.33440 | -13.44908 | 33026 ft | 401 kts | 222° |
| 2026-04-26 10:43 | 29.29172 | -13.49048 | 33026 ft | 401 kts | 222° |
| 2026-04-26 10:43 | 29.24926 | -13.53162 | 33029 ft | 401 kts | 222° |
| 2026-04-26 10:44 | 29.20664 | -13.57287 | 33026 ft | 401 kts | 222° |
| 2026-04-26 10:44 | 29.16418 | -13.61391 | 33025 ft | 401 kts | 222° |
| 2026-04-26 10:45 | 29.12173 | -13.65491 | 33007 ft | 401 kts | 222° |
| 2026-04-26 10:45 | 29.07914 | -13.69598 | 33021 ft | 399 kts | 222° |
| 2026-04-26 10:46 | 29.03681 | -13.73677 | 33025 ft | 399 kts | 222° |
| 2026-04-26 10:46 | 28.99408 | -13.77788 | 33026 ft | 399 kts | 222° |
| 2026-04-26 10:47 | 28.95180 | -13.81853 | 33019 ft | 399 kts | 222° |
| 2026-04-26 10:47 | 28.93038 | -13.83910 | 32474 ft | 400 kts | 222° |
| 2026-04-26 10:47 | 28.90903 | -13.85962 | 32184 ft | 412 kts | 221° |
| 2026-04-26 10:48 | 28.88677 | -13.88099 | 31728 ft | 422 kts | 221° |
| 2026-04-26 10:48 | 28.86400 | -13.90283 | 30856 ft | 429 kts | 221° |
| 2026-04-26 10:48 | 28.84107 | -13.92479 | 30293 ft | 429 kts | 221° |
| 2026-04-26 10:48 | 28.81821 | -13.94667 | 30077 ft | 426 kts | 221° |
| 2026-04-26 10:49 | 28.77294 | -13.98997 | 30038 ft | 425 kts | 220° |
| 2026-04-26 10:49 | 28.72767 | -14.03324 | 30041 ft | 425 kts | 220° |
| 2026-04-26 10:50 | 28.68994 | -14.06926 | 29539 ft | 424 kts | 220° |
| 2026-04-26 10:50 | 28.65993 | -14.09788 | 28812 ft | 419 kts | 220° |
| 2026-04-26 10:50 | 28.63763 | -14.11913 | 28311 ft | 414 kts | 221° |
| 2026-04-26 10:51 | 28.61591 | -14.13982 | 27768 ft | 411 kts | 221° |
| 2026-04-26 10:51 | 28.57234 | -14.18129 | 26736 ft | 404 kts | 221° |
| 2026-04-26 10:51 | 28.55083 | -14.20175 | 26232 ft | 401 kts | 221° |
| 2026-04-26 10:52 | 28.52966 | -14.22188 | 25738 ft | 398 kts | 221° |
| 2026-04-26 10:52 | 28.50846 | -14.24202 | 25243 ft | 395 kts | 221° |
| 2026-04-26 10:52 | 28.48741 | -14.26201 | 24739 ft | 392 kts | 221° |
| 2026-04-26 10:52 | 28.46649 | -14.28187 | 24231 ft | 391 kts | 221° |
| 2026-04-26 10:53 | 28.44565 | -14.30163 | 23735 ft | 388 kts | 221° |
| 2026-04-26 10:53 | 28.42504 | -14.32118 | 23172 ft | 386 kts | 221° |
| 2026-04-26 10:53 | 28.40444 | -14.34069 | 22573 ft | 384 kts | 221° |
| 2026-04-26 10:54 | 28.36369 | -14.37928 | 21423 ft | 381 kts | 221° |
| 2026-04-26 10:54 | 28.34331 | -14.39856 | 20901 ft | 378 kts | 221° |
| 2026-04-26 10:54 | 28.32317 | -14.41760 | 20391 ft | 375 kts | 220° |
| 2026-04-26 10:54 | 28.30319 | -14.43649 | 20069 ft | 374 kts | 221° |
| 2026-04-26 10:55 | 28.28320 | -14.45537 | 19993 ft | 374 kts | 221° |
| 2026-04-26 10:55 | 28.26316 | -14.47430 | 19995 ft | 374 kts | 221° |
| 2026-04-26 10:55 | 28.24339 | -14.49296 | 19925 ft | 374 kts | 220° |
| 2026-04-26 10:55 | 28.22987 | -14.50571 | 19559 ft | 374 kts | 221° |
| 2026-04-26 10:56 | 28.20336 | -14.53070 | 18875 ft | 372 kts | 220° |
| 2026-04-26 10:56 | 28.18350 | -14.54941 | 18286 ft | 372 kts | 220° |
| 2026-04-26 10:56 | 28.16357 | -14.56819 | 17664 ft | 371 kts | 220° |
| 2026-04-26 10:56 | 28.14373 | -14.58686 | 17193 ft | 366 kts | 220° |
| 2026-04-26 10:57 | 28.12420 | -14.60523 | 16653 ft | 363 kts | 220° |
| 2026-04-26 10:57 | 28.10486 | -14.62342 | 16095 ft | 362 kts | 220° |
| 2026-04-26 10:57 | 28.08554 | -14.64158 | 15600 ft | 359 kts | 220° |
| 2026-04-26 10:57 | 28.06643 | -14.65953 | 15086 ft | 356 kts | 221° |
| 2026-04-26 10:58 | 28.04735 | -14.67746 | 14551 ft | 354 kts | 220° |
| 2026-04-26 10:58 | 28.02852 | -14.69513 | 14050 ft | 352 kts | 220° |
| 2026-04-26 10:58 | 28.00975 | -14.71274 | 13529 ft | 349 kts | 220° |
| 2026-04-26 10:58 | 27.99102 | -14.73030 | 12939 ft | 348 kts | 220° |
| 2026-04-26 10:59 | 27.97240 | -14.74775 | 12376 ft | 347 kts | 220° |
| 2026-04-26 10:59 | 27.95405 | -14.76493 | 11822 ft | 345 kts | 221° |
| 2026-04-26 10:59 | 27.93547 | -14.78234 | 11261 ft | 343 kts | 221° |
| 2026-04-26 10:59 | 27.91716 | -14.79947 | 10894 ft | 337 kts | 221° |
| 2026-04-26 11:00 | 27.89957 | -14.81592 | 10714 ft | 324 kts | 221° |
| 2026-04-26 11:00 | 27.88250 | -14.83190 | 10560 ft | 312 kts | 221° |
| 2026-04-26 11:00 | 27.86605 | -14.84727 | 10356 ft | 303 kts | 221° |
| 2026-04-26 11:00 | 27.84989 | -14.86237 | 10088 ft | 299 kts | 221° |
| 2026-04-26 11:01 | 27.83385 | -14.87736 | 10017 ft | 299 kts | 221° |
| 2026-04-26 11:01 | 27.81790 | -14.89225 | 10007 ft | 301 kts | 221° |
| 2026-04-26 11:01 | 27.80169 | -14.90739 | 9828 ft | 303 kts | 221° |
| 2026-04-26 11:01 | 27.78534 | -14.92266 | 9385 ft | 302 kts | 221° |
| 2026-04-26 11:02 | 27.76918 | -14.93772 | 9040 ft | 298 kts | 220° |
| 2026-04-26 11:02 | 27.75348 | -14.95235 | 8679 ft | 295 kts | 220° |
| 2026-04-26 11:02 | 27.73761 | -14.96714 | 8277 ft | 294 kts | 220° |
| 2026-04-26 11:02 | 27.72190 | -14.98177 | 8048 ft | 290 kts | 220° |
| 2026-04-26 11:03 | 27.70781 | -14.99794 | 7996 ft | 287 kts | 240° |
| 2026-04-26 11:03 | 27.70181 | -15.01883 | 8001 ft | 283 kts | 268° |
| 2026-04-26 11:03 | 27.70362 | -15.04085 | 8005 ft | 281 kts | 283° |
| 2026-04-26 11:03 | 27.70771 | -15.06251 | 7979 ft | 282 kts | 284° |
| 2026-04-26 11:04 | 27.71198 | -15.08405 | 7562 ft | 286 kts | 284° |
| 2026-04-26 11:04 | 27.71620 | -15.10597 | 7231 ft | 282 kts | 284° |
| 2026-04-26 11:04 | 27.72024 | -15.12749 | 6893 ft | 279 kts | 284° |
| 2026-04-26 11:04 | 27.72417 | -15.14889 | 6533 ft | 278 kts | 284° |
| 2026-04-26 11:05 | 27.72805 | -15.17021 | 6144 ft | 276 kts | 284° |
| 2026-04-26 11:05 | 27.73185 | -15.19114 | 5758 ft | 275 kts | 284° |
| 2026-04-26 11:05 | 27.73569 | -15.21244 | 5362 ft | 274 kts | 284° |
| 2026-04-26 11:05 | 27.73942 | -15.23324 | 5053 ft | 271 kts | 284° |
| 2026-04-26 11:06 | 27.74317 | -15.25415 | 4996 ft | 271 kts | 284° |
| 2026-04-26 11:06 | 27.74566 | -15.26806 | 4847 ft | 273 kts | 284° |
| 2026-04-26 11:06 | 27.75073 | -15.29634 | 4295 ft | 272 kts | 284° |
| 2026-04-26 11:06 | 27.75319 | -15.31012 | 4103 ft | 268 kts | 284° |
| 2026-04-26 11:07 | 27.75804 | -15.33733 | 3640 ft | 265 kts | 285° |
| 2026-04-26 11:07 | 27.76046 | -15.35085 | 3393 ft | 264 kts | 285° |
| 2026-04-26 11:07 | 27.76409 | -15.37122 | 3036 ft | 263 kts | 285° |
| 2026-04-26 11:07 | 27.76887 | -15.39801 | 2589 ft | 259 kts | 284° |
| 2026-04-26 11:08 | 27.77122 | -15.41125 | 2379 ft | 257 kts | 284° |
| 2026-04-26 11:08 | 27.77715 | -15.42974 | 2137 ft | 246 kts | 310° |
| 2026-04-26 11:08 | 27.79057 | -15.44023 | 2021 ft | 229 kts | 348° |
| 2026-04-26 11:08 | 27.80591 | -15.44063 | 1997 ft | 214 kts | 6° |
| 2026-04-26 11:09 | 27.81973 | -15.43643 | 2002 ft | 202 kts | 21° |
| 2026-04-26 11:09 | 27.83226 | -15.43045 | 1982 ft | 188 kts | 19° |
| 2026-04-26 11:09 | 27.84424 | -15.42534 | 1776 ft | 181 kts | 19° |
| 2026-04-26 11:09 | 27.85584 | -15.42024 | 1438 ft | 173 kts | 20° |
| 2026-04-26 11:10 | 27.86653 | -15.41550 | 1211 ft | 160 kts | 19° |
| 2026-04-26 11:10 | 27.87651 | -15.41109 | 1003 ft | 147 kts | 18° |
| 2026-04-26 11:10 | 27.88558 | -15.40709 | 816 ft | 133 kts | 19° |
| 2026-04-26 11:10 | 27.89379 | -15.40344 | 650 ft | 121 kts | 18° |
| 2026-04-26 11:11 | 27.90152 | -15.40002 | 507 ft | 122 kts | 14° |
| 2026-04-26 11:11 | 27.90952 | -15.39642 | 330 ft | 124 kts | 16° |
| 2026-04-26 11:11 | 27.91741 | -15.39294 | 154 ft | 119 kts | 16° |
| 2026-04-26 11:11 | 27.92489 | -15.38971 | 63 ft | 99 kts | 21° |
| 2026-04-26 11:12 | 27.92940 | -15.38770 | 57 ft | 42 kts | 21° |
| 2026-04-26 11:12 | 27.93089 | -15.38720 | 55 ft | 18 kts | 6° |
| 2026-04-26 11:12 | 27.93220 | -15.38719 | 54 ft | 20 kts | 351° |
| 2026-04-26 11:12 | 27.93333 | -15.38746 | 58 ft | 7 kts | 346° |
| 2026-04-26 11:13 | 27.93391 | -15.38763 | 57 ft | 10 kts | 339° |
| 2026-04-26 11:13 | 27.93434 | -15.38822 | 50 ft | 11 kts | 294° |
| 2026-04-26 11:13 | 27.93492 | -15.38869 | 51 ft | 12 kts | 356° |
| 2026-04-26 11:13 | 27.93575 | -15.38844 | 49 ft | 14 kts | 21° |
| 2026-04-26 11:14 | 27.93673 | -15.38801 | 51 ft | 16 kts | 21° |
| 2026-04-26 11:14 | 27.93740 | -15.38780 | 47 ft | 4 kts | 345° |
| 2026-04-26 11:14 | 27.93756 | -15.38801 | 49 ft | 3 kts | 302° |
| 2026-04-26 11:14 | 27.93761 | -15.38813 | 46 ft | 1 kts | 295° |
| 2026-04-26 11:15 | 27.93766 | -15.38824 | 47 ft | 2 kts | 294° |
| 2026-04-26 11:15 | 27.93772 | -15.38839 | 49 ft | 0 kts | 294° |
| 2026-04-26 11:15 | 27.93773 | -15.38842 | 50 ft | 1 kts | 294° |